sensor_id;sensor_type;location;lat;lon;timestamp;temperature;humidity
5520;DHT22;2782;52.362;10.012;2023-12-28T00:00:11;21.10;62.60
5520;DHT22;2782;52.362;10.012;2023-12-28T00:01:13;21.10;62.70
5520;DHT22;2782;52.362;10.012;2023-12-28T00:02:14;21.10;62.70
5520;DHT22;2782;52.362;10.012;2023-12-28T00:03:16;21.10;62.70
5520;DHT22;2782;52.362;10.012;2023-12-28T00:04:16;21.10;62.70
5520;DHT22;2782;52.362;10.012;2023-12-28T00:05:18;21.10;62.70
5520;DHT22;2782;52.362;10.012;2023-12-28T00:06:18;21.10;63.40
5520;DHT22;2782;52.362;10.012;2023-12-28T00:07:20;21.10;62.70
5520;DHT22;2782;52.362;10.012;2023-12-28T00:08:21;21.10;62.70
5520;DHT22;2782;52.362;10.012;2023-12-28T00:09:22;21.00;62.60
5520;DHT22;2782;52.362;10.012;2023-12-28T00:10:23;21.00;62.60
5520;DHT22;2782;52.362;10.012;2023-12-28T00:11:25;21.00;62.60
5520;DHT22;2782;52.362;10.012;2023-12-28T00:12:25;21.00;62.60
5520;DHT22;2782;52.362;10.012;2023-12-28T00:13:27;21.00;62.60
5520;DHT22;2782;52.362;10.012;2023-12-28T00:14:29;21.00;62.60
5520;DHT22;2782;52.362;10.012;2023-12-28T00:15:29;21.00;62.70
5520;DHT22;2782;52.362;10.012;2023-12-28T00:16:31;21.00;62.70
5520;DHT22;2782;52.362;10.012;2023-12-28T00:17:33;21.00;62.80
5520;DHT22;2782;52.362;10.012;2023-12-28T00:18:34;21.00;62.70
5520;DHT22;2782;52.362;10.012;2023-12-28T00:19:35;21.00;62.70
5520;DHT22;2782;52.362;10.012;2023-12-28T00:20:36;21.00;62.70
5520;DHT22;2782;52.362;10.012;2023-12-28T00:21:37;20.90;62.60
5520;DHT22;2782;52.362;10.012;2023-12-28T00:22:38;20.90;62.60
5520;DHT22;2782;52.362;10.012;2023-12-28T00:23:39;20.90;62.60
5520;DHT22;2782;52.362;10.012;2023-12-28T00:24:40;20.90;62.60
5520;DHT22;2782;52.362;10.012;2023-12-28T00:25:42;20.90;62.60
5520;DHT22;2782;52.362;10.012;2023-12-28T00:26:42;20.90;62.60
5520;DHT22;2782;52.362;10.012;2023-12-28T00:27:44;20.90;62.70
5520;DHT22;2782;52.362;10.012;2023-12-28T00:28:46;20.90;62.60
5520;DHT22;2782;52.362;10.012;2023-12-28T00:29:48;20.90;62.60
5520;DHT22;2782;52.362;10.012;2023-12-28T00:30:50;20.90;62.60
5520;DHT22;2782;52.362;10.012;2023-12-28T00:31:52;20.90;62.60
5520;DHT22;2782;52.362;10.012;2023-12-28T00:32:54;20.90;62.70
5520;DHT22;2782;52.362;10.012;2023-12-28T00:33:55;20.90;62.70
5520;DHT22;2782;52.362;10.012;2023-12-28T00:34:56;20.80;62.70
5520;DHT22;2782;52.362;10.012;2023-12-28T00:35:58;20.80;62.60
5520;DHT22;2782;52.362;10.012;2023-12-28T00:36:59;20.80;62.70
5520;DHT22;2782;52.362;10.012;2023-12-28T00:38:04;20.80;62.70
5520;DHT22;2782;52.362;10.012;2023-12-28T00:39:05;20.80;62.70
5520;DHT22;2782;52.362;10.012;2023-12-28T00:40:08;20.80;62.70
5520;DHT22;2782;52.362;10.012;2023-12-28T00:41:09;20.80;62.70
5520;DHT22;2782;52.362;10.012;2023-12-28T00:42:11;20.80;62.70
5520;DHT22;2782;52.362;10.012;2023-12-28T00:43:12;20.80;62.70
5520;DHT22;2782;52.362;10.012;2023-12-28T00:44:14;20.80;62.70
5520;DHT22;2782;52.362;10.012;2023-12-28T00:45:16;20.80;62.80
5520;DHT22;2782;52.362;10.012;2023-12-28T00:46:18;20.80;62.70
5520;DHT22;2782;52.362;10.012;2023-12-28T00:47:18;20.70;62.70
5520;DHT22;2782;52.362;10.012;2023-12-28T00:48:20;20.70;62.60
5520;DHT22;2782;52.362;10.012;2023-12-28T00:49:20;20.70;63.40
5520;DHT22;2782;52.362;10.012;2023-12-28T00:50:22;20.70;62.60
5520;DHT22;2782;52.362;10.012;2023-12-28T00:51:23;20.80;62.80
5520;DHT22;2782;52.362;10.012;2023-12-28T00:52:24;20.70;62.60
5520;DHT22;2782;52.362;10.012;2023-12-28T00:53:25;20.70;62.60
5520;DHT22;2782;52.362;10.012;2023-12-28T00:54:27;20.70;62.60
5520;DHT22;2782;52.362;10.012;2023-12-28T00:55:28;20.70;62.70
5520;DHT22;2782;52.362;10.012;2023-12-28T00:56:29;20.70;62.70
5520;DHT22;2782;52.362;10.012;2023-12-28T00:57:30;20.70;62.70
5520;DHT22;2782;52.362;10.012;2023-12-28T00:58:31;20.70;62.70
5520;DHT22;2782;52.362;10.012;2023-12-28T00:59:32;20.70;62.70
5520;DHT22;2782;52.362;10.012;2023-12-28T01:00:34;20.70;62.80
5520;DHT22;2782;52.362;10.012;2023-12-28T01:01:42;20.70;62.80
5520;DHT22;2782;52.362;10.012;2023-12-28T01:02:46;20.60;62.70
5520;DHT22;2782;52.362;10.012;2023-12-28T01:03:47;20.70;62.80
5520;DHT22;2782;52.362;10.012;2023-12-28T01:04:49;20.60;62.70
5520;DHT22;2782;52.362;10.012;2023-12-28T01:05:50;20.60;62.80
5520;DHT22;2782;52.362;10.012;2023-12-28T01:06:53;20.60;62.70
5520;DHT22;2782;52.362;10.012;2023-12-28T01:07:54;20.60;62.80
5520;DHT22;2782;52.362;10.012;2023-12-28T01:08:57;20.60;62.70
5520;DHT22;2782;52.362;10.012;2023-12-28T01:09:58;20.60;62.80
5520;DHT22;2782;52.362;10.012;2023-12-28T01:11:00;20.50;62.70
5520;DHT22;2782;52.362;10.012;2023-12-28T01:12:01;20.60;62.80
5520;DHT22;2782;52.362;10.012;2023-12-28T01:13:03;20.60;62.70
5520;DHT22;2782;52.362;10.012;2023-12-28T01:14:03;20.50;62.60
5520;DHT22;2782;52.362;10.012;2023-12-28T01:15:06;20.50;62.70
5520;DHT22;2782;52.362;10.012;2023-12-28T01:16:09;20.50;62.70
5520;DHT22;2782;52.362;10.012;2023-12-28T01:17:13;20.50;62.70
5520;DHT22;2782;52.362;10.012;2023-12-28T01:18:14;20.50;62.70
5520;DHT22;2782;52.362;10.012;2023-12-28T01:19:15;20.50;62.70
5520;DHT22;2782;52.362;10.012;2023-12-28T01:20:16;20.50;62.70
5520;DHT22;2782;52.362;10.012;2023-12-28T01:21:17;20.50;62.70
5520;DHT22;2782;52.362;10.012;2023-12-28T01:22:18;20.50;62.70
5520;DHT22;2782;52.362;10.012;2023-12-28T01:23:20;20.50;62.70
5520;DHT22;2782;52.362;10.012;2023-12-28T01:24:20;20.50;62.70
5520;DHT22;2782;52.362;10.012;2023-12-28T01:25:22;20.50;62.80
5520;DHT22;2782;52.362;10.012;2023-12-28T01:26:23;20.50;62.80
5520;DHT22;2782;52.362;10.012;2023-12-28T01:27:24;20.50;62.80
5520;DHT22;2782;52.362;10.012;2023-12-28T01:28:25;20.50;62.80
5520;DHT22;2782;52.362;10.012;2023-12-28T01:29:26;20.40;62.70
5520;DHT22;2782;52.362;10.012;2023-12-28T01:30:27;20.50;62.70
5520;DHT22;2782;52.362;10.012;2023-12-28T01:31:29;20.50;62.80
5520;DHT22;2782;52.362;10.012;2023-12-28T01:32:31;20.40;62.70
5520;DHT22;2782;52.362;10.012;2023-12-28T01:33:31;20.40;62.70
5520;DHT22;2782;52.362;10.012;2023-12-28T01:34:32;20.40;62.70
5520;DHT22;2782;52.362;10.012;2023-12-28T01:35:34;20.40;62.70
5520;DHT22;2782;52.362;10.012;2023-12-28T01:36:35;20.40;62.70
5520;DHT22;2782;52.362;10.012;2023-12-28T01:37:37;20.40;62.80
5520;DHT22;2782;52.362;10.012;2023-12-28T01:38:38;20.40;62.70
5520;DHT22;2782;52.362;10.012;2023-12-28T01:39:40;20.40;62.80
5520;DHT22;2782;52.362;10.012;2023-12-28T01:40:44;20.40;62.70
5520;DHT22;2782;52.362;10.012;2023-12-28T01:41:46;20.40;62.70
5520;DHT22;2782;52.362;10.012;2023-12-28T01:42:47;20.30;62.70
5520;DHT22;2782;52.362;10.012;2023-12-28T01:43:49;20.40;63.40
5520;DHT22;2782;52.362;10.012;2023-12-28T01:44:50;20.40;62.70
5520;DHT22;2782;52.362;10.012;2023-12-28T01:45:51;20.30;62.50
5520;DHT22;2782;52.362;10.012;2023-12-28T01:46:53;20.30;62.60
5520;DHT22;2782;52.362;10.012;2023-12-28T01:47:57;20.40;62.70
5520;DHT22;2782;52.362;10.012;2023-12-28T01:48:58;20.40;62.70
5520;DHT22;2782;52.362;10.012;2023-12-28T01:50:00;20.30;62.60
5520;DHT22;2782;52.362;10.012;2023-12-28T01:51:02;20.30;62.60
5520;DHT22;2782;52.362;10.012;2023-12-28T01:52:04;20.30;62.60
5520;DHT22;2782;52.362;10.012;2023-12-28T01:53:08;20.30;62.60
5520;DHT22;2782;52.362;10.012;2023-12-28T01:54:11;20.30;63.30
5520;DHT22;2782;52.362;10.012;2023-12-28T01:55:12;20.30;62.60
5520;DHT22;2782;52.362;10.012;2023-12-28T01:56:15;20.30;62.60
5520;DHT22;2782;52.362;10.012;2023-12-28T01:57:18;20.30;62.50
5520;DHT22;2782;52.362;10.012;2023-12-28T01:58:20;20.20;62.50
5520;DHT22;2782;52.362;10.012;2023-12-28T01:59:21;20.30;62.60
5520;DHT22;2782;52.362;10.012;2023-12-28T02:00:23;20.20;62.40
5520;DHT22;2782;52.362;10.012;2023-12-28T02:01:25;20.30;62.60
5520;DHT22;2782;52.362;10.012;2023-12-28T02:02:29;20.20;62.40
5520;DHT22;2782;52.362;10.012;2023-12-28T02:03:31;20.20;62.40
5520;DHT22;2782;52.362;10.012;2023-12-28T02:04:33;20.20;62.40
5520;DHT22;2782;52.362;10.012;2023-12-28T02:05:36;20.20;62.40
5520;DHT22;2782;52.362;10.012;2023-12-28T02:06:36;20.20;62.40
5520;DHT22;2782;52.362;10.012;2023-12-28T02:07:38;20.20;62.50
5520;DHT22;2782;52.362;10.012;2023-12-28T02:08:39;20.20;62.50
5520;DHT22;2782;52.362;10.012;2023-12-28T02:09:40;20.20;62.50
5520;DHT22;2782;52.362;10.012;2023-12-28T02:10:41;20.20;62.40
5520;DHT22;2782;52.362;10.012;2023-12-28T02:11:43;20.20;62.40
5520;DHT22;2782;52.362;10.012;2023-12-28T02:12:44;20.10;62.30
5520;DHT22;2782;52.362;10.012;2023-12-28T02:13:45;20.20;62.40
5520;DHT22;2782;52.362;10.012;2023-12-28T02:14:46;20.10;62.40
5520;DHT22;2782;52.362;10.012;2023-12-28T02:15:49;20.10;62.40
5520;DHT22;2782;52.362;10.012;2023-12-28T02:17:00;20.10;62.40
5520;DHT22;2782;52.362;10.012;2023-12-28T02:18:10;20.10;62.40
5520;DHT22;2782;52.362;10.012;2023-12-28T02:19:19;20.10;62.40
5520;DHT22;2782;52.362;10.012;2023-12-28T02:20:28;20.10;62.50
5520;DHT22;2782;52.362;10.012;2023-12-28T02:21:31;20.10;62.40
5520;DHT22;2782;52.362;10.012;2023-12-28T02:22:34;20.10;62.40
5520;DHT22;2782;52.362;10.012;2023-12-28T02:23:36;20.10;62.50
5520;DHT22;2782;52.362;10.012;2023-12-28T02:25:04;20.10;62.50
5520;DHT22;2782;52.362;10.012;2023-12-28T02:26:05;20.10;62.40
5520;DHT22;2782;52.362;10.012;2023-12-28T02:27:06;20.10;62.40
5520;DHT22;2782;52.362;10.012;2023-12-28T02:28:07;20.00;62.40
5520;DHT22;2782;52.362;10.012;2023-12-28T02:29:09;20.00;62.50
5520;DHT22;2782;52.362;10.012;2023-12-28T02:30:10;20.00;62.40
5520;DHT22;2782;52.362;10.012;2023-12-28T02:31:21;20.00;62.40
5520;DHT22;2782;52.362;10.012;2023-12-28T02:32:35;20.00;62.40
5520;DHT22;2782;52.362;10.012;2023-12-28T02:33:46;20.00;62.40
5520;DHT22;2782;52.362;10.012;2023-12-28T02:34:55;20.00;62.40
5520;DHT22;2782;52.362;10.012;2023-12-28T02:35:58;20.00;62.50
5520;DHT22;2782;52.362;10.012;2023-12-28T02:37:03;20.00;62.50
5520;DHT22;2782;52.362;10.012;2023-12-28T02:38:09;20.00;62.40
5520;DHT22;2782;52.362;10.012;2023-12-28T02:39:11;20.00;62.50
5520;DHT22;2782;52.362;10.012;2023-12-28T02:40:17;20.00;62.50
5520;DHT22;2782;52.362;10.012;2023-12-28T02:41:19;20.00;62.50
5520;DHT22;2782;52.362;10.012;2023-12-28T02:42:20;20.00;62.50
5520;DHT22;2782;52.362;10.012;2023-12-28T02:43:22;20.00;62.50
5520;DHT22;2782;52.362;10.012;2023-12-28T02:44:23;20.00;62.50
5520;DHT22;2782;52.362;10.012;2023-12-28T02:45:24;20.00;62.50
5520;DHT22;2782;52.362;10.012;2023-12-28T02:46:26;20.00;62.50
5520;DHT22;2782;52.362;10.012;2023-12-28T02:47:27;20.00;62.50
5520;DHT22;2782;52.362;10.012;2023-12-28T02:48:28;20.00;62.50
5520;DHT22;2782;52.362;10.012;2023-12-28T02:49:30;19.90;62.40
5520;DHT22;2782;52.362;10.012;2023-12-28T02:50:31;20.00;62.40
5520;DHT22;2782;52.362;10.012;2023-12-28T02:51:31;20.00;62.50
5520;DHT22;2782;52.362;10.012;2023-12-28T02:52:33;20.00;62.50
5520;DHT22;2782;52.362;10.012;2023-12-28T02:53:34;20.00;62.60
5520;DHT22;2782;52.362;10.012;2023-12-28T02:54:35;19.90;62.50
5520;DHT22;2782;52.362;10.012;2023-12-28T02:55:37;20.00;62.50
5520;DHT22;2782;52.362;10.012;2023-12-28T02:56:39;19.90;62.40
5520;DHT22;2782;52.362;10.012;2023-12-28T02:57:40;19.90;62.40
5520;DHT22;2782;52.362;10.012;2023-12-28T02:58:42;19.90;62.50
5520;DHT22;2782;52.362;10.012;2023-12-28T02:59:43;19.90;62.40
5520;DHT22;2782;52.362;10.012;2023-12-28T03:00:43;19.90;62.40
5520;DHT22;2782;52.362;10.012;2023-12-28T03:04:41;19.90;62.40
5520;DHT22;2782;52.362;10.012;2023-12-28T03:05:42;19.90;62.40
5520;DHT22;2782;52.362;10.012;2023-12-28T03:06:46;19.90;62.50
5520;DHT22;2782;52.362;10.012;2023-12-28T03:07:47;19.90;62.40
5520;DHT22;2782;52.362;10.012;2023-12-28T03:08:48;19.90;62.40
5520;DHT22;2782;52.362;10.012;2023-12-28T03:09:49;19.80;62.30
5520;DHT22;2782;52.362;10.012;2023-12-28T03:10:51;19.80;62.30
5520;DHT22;2782;52.362;10.012;2023-12-28T03:11:53;19.80;62.30
5520;DHT22;2782;52.362;10.012;2023-12-28T03:12:53;19.90;62.40
5520;DHT22;2782;52.362;10.012;2023-12-28T03:13:55;19.80;62.30
5520;DHT22;2782;52.362;10.012;2023-12-28T03:14:56;19.80;62.30
5520;DHT22;2782;52.362;10.012;2023-12-28T03:15:57;19.80;62.40
5520;DHT22;2782;52.362;10.012;2023-12-28T03:16:58;19.80;62.40
5520;DHT22;2782;52.362;10.012;2023-12-28T03:17:59;19.80;62.40
5520;DHT22;2782;52.362;10.012;2023-12-28T03:19:01;19.80;62.30
5520;DHT22;2782;52.362;10.012;2023-12-28T03:20:02;19.80;62.40
5520;DHT22;2782;52.362;10.012;2023-12-28T03:21:03;19.80;62.40
5520;DHT22;2782;52.362;10.012;2023-12-28T03:22:05;19.80;62.40
5520;DHT22;2782;52.362;10.012;2023-12-28T03:23:05;19.80;62.30
5520;DHT22;2782;52.362;10.012;2023-12-28T03:24:07;19.80;62.30
5520;DHT22;2782;52.362;10.012;2023-12-28T03:25:08;19.80;62.30
5520;DHT22;2782;52.362;10.012;2023-12-28T03:26:11;19.80;62.30
5520;DHT22;2782;52.362;10.012;2023-12-28T03:27:12;19.80;62.30
5520;DHT22;2782;52.362;10.012;2023-12-28T03:28:13;19.80;62.30
5520;DHT22;2782;52.362;10.012;2023-12-28T03:29:16;19.80;62.30
5520;DHT22;2782;52.362;10.012;2023-12-28T03:30:17;19.80;62.30
5520;DHT22;2782;52.362;10.012;2023-12-28T03:31:18;19.80;62.30
5520;DHT22;2782;52.362;10.012;2023-12-28T03:32:19;19.70;62.10
5520;DHT22;2782;52.362;10.012;2023-12-28T03:33:21;19.80;62.30
5520;DHT22;2782;52.362;10.012;2023-12-28T03:34:22;19.80;62.40
5520;DHT22;2782;52.362;10.012;2023-12-28T03:35:24;19.70;62.20
5520;DHT22;2782;52.362;10.012;2023-12-28T03:36:25;19.70;62.20
5520;DHT22;2782;52.362;10.012;2023-12-28T03:37:27;19.70;62.20
5520;DHT22;2782;52.362;10.012;2023-12-28T03:38:29;19.70;62.30
5520;DHT22;2782;52.362;10.012;2023-12-28T03:39:31;19.70;62.20
5520;DHT22;2782;52.362;10.012;2023-12-28T03:40:32;19.70;62.20
5520;DHT22;2782;52.362;10.012;2023-12-28T03:41:35;19.70;62.10
5520;DHT22;2782;52.362;10.012;2023-12-28T03:42:36;19.70;62.20
5520;DHT22;2782;52.362;10.012;2023-12-28T03:43:38;19.70;62.30
5520;DHT22;2782;52.362;10.012;2023-12-28T03:44:39;19.70;62.20
5520;DHT22;2782;52.362;10.012;2023-12-28T03:45:40;19.70;62.10
5520;DHT22;2782;52.362;10.012;2023-12-28T03:46:42;19.70;62.20
5520;DHT22;2782;52.362;10.012;2023-12-28T03:47:44;19.70;62.20
5520;DHT22;2782;52.362;10.012;2023-12-28T03:48:46;19.70;62.20
5520;DHT22;2782;52.362;10.012;2023-12-28T03:49:46;19.70;62.10
5520;DHT22;2782;52.362;10.012;2023-12-28T03:50:48;19.70;62.20
5520;DHT22;2782;52.362;10.012;2023-12-28T03:51:50;19.70;62.20
5520;DHT22;2782;52.362;10.012;2023-12-28T03:52:52;19.70;62.30
5520;DHT22;2782;52.362;10.012;2023-12-28T03:53:53;19.70;62.40
5520;DHT22;2782;52.362;10.012;2023-12-28T03:54:54;19.70;62.30
5520;DHT22;2782;52.362;10.012;2023-12-28T03:55:56;19.70;62.30
5520;DHT22;2782;52.362;10.012;2023-12-28T03:56:58;19.70;62.30
5520;DHT22;2782;52.362;10.012;2023-12-28T03:58:00;19.70;62.40
5520;DHT22;2782;52.362;10.012;2023-12-28T03:59:00;19.70;62.30
5520;DHT22;2782;52.362;10.012;2023-12-28T04:00:03;19.60;62.30
5520;DHT22;2782;52.362;10.012;2023-12-28T04:01:05;19.70;62.40
5520;DHT22;2782;52.362;10.012;2023-12-28T04:02:07;19.60;62.20
5520;DHT22;2782;52.362;10.012;2023-12-28T04:03:08;19.70;62.30
5520;DHT22;2782;52.362;10.012;2023-12-28T04:04:10;19.60;62.30
5520;DHT22;2782;52.362;10.012;2023-12-28T04:05:11;19.60;62.30
5520;DHT22;2782;52.362;10.012;2023-12-28T04:06:13;19.60;62.30
5520;DHT22;2782;52.362;10.012;2023-12-28T04:07:14;19.60;62.30
5520;DHT22;2782;52.362;10.012;2023-12-28T04:08:16;19.60;62.30
5520;DHT22;2782;52.362;10.012;2023-12-28T04:09:18;19.60;62.20
5520;DHT22;2782;52.362;10.012;2023-12-28T04:10:28;19.60;62.30
5520;DHT22;2782;52.362;10.012;2023-12-28T04:11:31;19.60;62.30
5520;DHT22;2782;52.362;10.012;2023-12-28T04:12:33;19.60;62.30
5520;DHT22;2782;52.362;10.012;2023-12-28T04:13:34;19.60;62.30
5520;DHT22;2782;52.362;10.012;2023-12-28T04:14:36;19.60;62.30
5520;DHT22;2782;52.362;10.012;2023-12-28T04:15:37;19.60;62.30
5520;DHT22;2782;52.362;10.012;2023-12-28T04:16:43;19.60;62.40
5520;DHT22;2782;52.362;10.012;2023-12-28T04:17:45;19.60;62.40
5520;DHT22;2782;52.362;10.012;2023-12-28T04:18:47;19.60;62.40
5520;DHT22;2782;52.362;10.012;2023-12-28T04:19:48;19.50;62.20
5520;DHT22;2782;52.362;10.012;2023-12-28T04:20:50;19.60;62.40
5520;DHT22;2782;52.362;10.012;2023-12-28T04:21:51;19.50;62.30
5520;DHT22;2782;52.362;10.012;2023-12-28T04:22:53;19.60;62.40
5520;DHT22;2782;52.362;10.012;2023-12-28T04:23:54;19.50;62.30
5520;DHT22;2782;52.362;10.012;2023-12-28T04:24:56;19.50;62.30
5520;DHT22;2782;52.362;10.012;2023-12-28T04:25:58;19.60;62.40
5520;DHT22;2782;52.362;10.012;2023-12-28T04:27:00;19.50;62.30
5520;DHT22;2782;52.362;10.012;2023-12-28T04:28:03;19.50;62.30
5520;DHT22;2782;52.362;10.012;2023-12-28T04:29:05;19.50;62.20
5520;DHT22;2782;52.362;10.012;2023-12-28T04:30:07;19.60;62.40
5520;DHT22;2782;52.362;10.012;2023-12-28T04:31:08;19.50;62.20
5520;DHT22;2782;52.362;10.012;2023-12-28T04:32:10;19.50;62.20
5520;DHT22;2782;52.362;10.012;2023-12-28T04:33:11;19.50;62.20
5520;DHT22;2782;52.362;10.012;2023-12-28T04:34:13;19.50;62.20
5520;DHT22;2782;52.362;10.012;2023-12-28T04:35:14;19.50;62.20
5520;DHT22;2782;52.362;10.012;2023-12-28T04:36:15;19.50;62.20
5520;DHT22;2782;52.362;10.012;2023-12-28T04:37:17;19.50;62.30
5520;DHT22;2782;52.362;10.012;2023-12-28T04:38:18;19.50;62.30
5520;DHT22;2782;52.362;10.012;2023-12-28T04:39:20;19.50;62.20
5520;DHT22;2782;52.362;10.012;2023-12-28T04:40:21;19.50;62.20
5520;DHT22;2782;52.362;10.012;2023-12-28T04:41:23;19.50;62.20
5520;DHT22;2782;52.362;10.012;2023-12-28T04:42:24;19.50;62.20
5520;DHT22;2782;52.362;10.012;2023-12-28T04:43:27;19.50;62.30
5520;DHT22;2782;52.362;10.012;2023-12-28T04:44:28;19.50;62.20
5520;DHT22;2782;52.362;10.012;2023-12-28T04:45:30;19.50;62.20
5520;DHT22;2782;52.362;10.012;2023-12-28T04:46:31;19.40;62.10
5520;DHT22;2782;52.362;10.012;2023-12-28T04:47:33;19.50;62.20
5520;DHT22;2782;52.362;10.012;2023-12-28T04:48:34;19.50;62.20
5520;DHT22;2782;52.362;10.012;2023-12-28T04:49:36;19.50;62.20
5520;DHT22;2782;52.362;10.012;2023-12-28T04:50:37;19.40;62.10
5520;DHT22;2782;52.362;10.012;2023-12-28T04:51:42;19.40;62.10
5520;DHT22;2782;52.362;10.012;2023-12-28T04:52:43;19.40;62.10
5520;DHT22;2782;52.362;10.012;2023-12-28T04:53:45;19.40;62.10
5520;DHT22;2782;52.362;10.012;2023-12-28T04:54:46;19.40;62.10
5520;DHT22;2782;52.362;10.012;2023-12-28T04:55:48;19.40;62.10
5520;DHT22;2782;52.362;10.012;2023-12-28T04:56:49;19.40;62.10
5520;DHT22;2782;52.362;10.012;2023-12-28T04:57:50;19.40;62.00
5520;DHT22;2782;52.362;10.012;2023-12-28T04:58:53;19.40;62.00
5520;DHT22;2782;52.362;10.012;2023-12-28T04:59:54;19.40;62.10
5520;DHT22;2782;52.362;10.012;2023-12-28T05:00:56;19.40;62.10
5520;DHT22;2782;52.362;10.012;2023-12-28T05:01:57;19.40;62.10
5520;DHT22;2782;52.362;10.012;2023-12-28T05:02:59;19.40;62.20
5520;DHT22;2782;52.362;10.012;2023-12-28T05:04:00;19.40;62.20
5520;DHT22;2782;52.362;10.012;2023-12-28T05:05:02;19.40;62.20
5520;DHT22;2782;52.362;10.012;2023-12-28T05:06:03;19.40;62.20
5520;DHT22;2782;52.362;10.012;2023-12-28T05:07:04;19.40;62.30
5520;DHT22;2782;52.362;10.012;2023-12-28T05:08:06;19.40;62.30
5520;DHT22;2782;52.362;10.012;2023-12-28T05:09:07;19.40;62.30
5520;DHT22;2782;52.362;10.012;2023-12-28T05:10:10;19.40;62.30
5520;DHT22;2782;52.362;10.012;2023-12-28T05:11:11;19.40;62.40
5520;DHT22;2782;52.362;10.012;2023-12-28T05:12:13;19.40;62.40
5520;DHT22;2782;52.362;10.012;2023-12-28T05:13:14;19.40;62.40
5520;DHT22;2782;52.362;10.012;2023-12-28T05:14:17;19.40;62.50
5520;DHT22;2782;52.362;10.012;2023-12-28T05:15:18;19.40;62.50
5520;DHT22;2782;52.362;10.012;2023-12-28T05:16:20;19.40;62.50
5520;DHT22;2782;52.362;10.012;2023-12-28T05:17:22;19.40;62.50
5520;DHT22;2782;52.362;10.012;2023-12-28T05:18:22;19.40;62.50
5520;DHT22;2782;52.362;10.012;2023-12-28T05:19:24;19.40;62.50
5520;DHT22;2782;52.362;10.012;2023-12-28T05:20:26;19.40;62.50
5520;DHT22;2782;52.362;10.012;2023-12-28T05:21:27;19.40;62.50
5520;DHT22;2782;52.362;10.012;2023-12-28T05:22:28;19.40;62.50
5520;DHT22;2782;52.362;10.012;2023-12-28T05:23:29;19.40;62.50
5520;DHT22;2782;52.362;10.012;2023-12-28T05:24:30;19.40;62.50
5520;DHT22;2782;52.362;10.012;2023-12-28T05:25:31;19.40;62.50
5520;DHT22;2782;52.362;10.012;2023-12-28T05:26:32;19.40;62.50
5520;DHT22;2782;52.362;10.012;2023-12-28T05:27:34;19.50;62.60
5520;DHT22;2782;52.362;10.012;2023-12-28T05:28:34;19.40;62.50
5520;DHT22;2782;52.362;10.012;2023-12-28T05:29:37;19.50;62.60
5520;DHT22;2782;52.362;10.012;2023-12-28T05:30:38;19.50;62.60
5520;DHT22;2782;52.362;10.012;2023-12-28T05:31:39;19.50;62.60
5520;DHT22;2782;52.362;10.012;2023-12-28T05:32:40;19.50;62.60
5520;DHT22;2782;52.362;10.012;2023-12-28T05:33:41;19.50;62.60
5520;DHT22;2782;52.362;10.012;2023-12-28T05:34:43;19.50;62.60
5520;DHT22;2782;52.362;10.012;2023-12-28T05:35:43;19.50;62.60
5520;DHT22;2782;52.362;10.012;2023-12-28T05:36:45;19.60;62.60
5520;DHT22;2782;52.362;10.012;2023-12-28T05:37:46;19.60;62.70
5520;DHT22;2782;52.362;10.012;2023-12-28T05:38:47;19.60;62.60
5520;DHT22;2782;52.362;10.012;2023-12-28T05:39:48;19.60;62.60
5520;DHT22;2782;52.362;10.012;2023-12-28T05:40:48;19.60;62.60
5520;DHT22;2782;52.362;10.012;2023-12-28T05:41:50;19.60;62.50
5520;DHT22;2782;52.362;10.012;2023-12-28T05:42:51;19.60;62.50
5520;DHT22;2782;52.362;10.012;2023-12-28T05:43:52;19.70;62.60
5520;DHT22;2782;52.362;10.012;2023-12-28T05:44:54;19.70;62.50
5520;DHT22;2782;52.362;10.012;2023-12-28T05:45:56;19.70;62.50
5520;DHT22;2782;52.362;10.012;2023-12-28T05:46:56;19.70;62.50
5520;DHT22;2782;52.362;10.012;2023-12-28T05:47:58;19.70;62.40
5520;DHT22;2782;52.362;10.012;2023-12-28T05:48:59;19.70;62.40
5520;DHT22;2782;52.362;10.012;2023-12-28T05:50:00;19.70;62.40
5520;DHT22;2782;52.362;10.012;2023-12-28T05:51:03;19.80;62.50
5520;DHT22;2782;52.362;10.012;2023-12-28T05:52:05;19.80;62.50
5520;DHT22;2782;52.362;10.012;2023-12-28T05:53:06;19.80;62.40
5520;DHT22;2782;52.362;10.012;2023-12-28T05:54:12;19.80;62.40
5520;DHT22;2782;52.362;10.012;2023-12-28T05:55:13;19.80;62.40
5520;DHT22;2782;52.362;10.012;2023-12-28T05:56:14;19.80;62.30
5520;DHT22;2782;52.362;10.012;2023-12-28T05:57:15;19.80;62.30
5520;DHT22;2782;52.362;10.012;2023-12-28T05:58:16;19.80;62.30
5520;DHT22;2782;52.362;10.012;2023-12-28T05:59:21;19.80;62.30
5520;DHT22;2782;52.362;10.012;2023-12-28T06:00:24;19.80;62.20
5520;DHT22;2782;52.362;10.012;2023-12-28T06:01:26;19.80;62.30
5520;DHT22;2782;52.362;10.012;2023-12-28T06:02:26;19.80;62.30
5520;DHT22;2782;52.362;10.012;2023-12-28T06:03:28;19.80;62.20
5520;DHT22;2782;52.362;10.012;2023-12-28T06:04:29;19.80;62.20
5520;DHT22;2782;52.362;10.012;2023-12-28T06:05:31;19.90;62.30
5520;DHT22;2782;52.362;10.012;2023-12-28T06:06:32;19.80;62.10
5520;DHT22;2782;52.362;10.012;2023-12-28T06:07:34;19.90;62.20
5520;DHT22;2782;52.362;10.012;2023-12-28T06:08:35;19.90;62.20
5520;DHT22;2782;52.362;10.012;2023-12-28T06:09:36;19.90;62.10
5520;DHT22;2782;52.362;10.012;2023-12-28T06:10:39;19.90;62.10
5520;DHT22;2782;52.362;10.012;2023-12-28T06:11:39;19.90;62.10
5520;DHT22;2782;52.362;10.012;2023-12-28T06:12:41;19.80;62.00
5520;DHT22;2782;52.362;10.012;2023-12-28T06:13:41;19.90;62.00
5520;DHT22;2782;52.362;10.012;2023-12-28T06:14:43;19.80;61.90
5520;DHT22;2782;52.362;10.012;2023-12-28T06:15:45;19.90;62.00
5520;DHT22;2782;52.362;10.012;2023-12-28T06:16:47;19.90;62.00
5520;DHT22;2782;52.362;10.012;2023-12-28T06:17:47;19.90;61.90
5520;DHT22;2782;52.362;10.012;2023-12-28T06:18:51;19.90;61.90
5520;DHT22;2782;52.362;10.012;2023-12-28T06:19:52;19.90;61.90
5520;DHT22;2782;52.362;10.012;2023-12-28T06:20:54;19.90;61.90
5520;DHT22;2782;52.362;10.012;2023-12-28T06:21:54;19.80;61.80
5520;DHT22;2782;52.362;10.012;2023-12-28T06:22:56;19.80;61.70
5520;DHT22;2782;52.362;10.012;2023-12-28T06:23:57;19.90;61.90
5520;DHT22;2782;52.362;10.012;2023-12-28T06:24:58;19.80;61.70
5520;DHT22;2782;52.362;10.012;2023-12-28T06:26:04;19.90;61.90
5520;DHT22;2782;52.362;10.012;2023-12-28T06:27:06;19.80;61.70
5520;DHT22;2782;52.362;10.012;2023-12-28T06:28:06;19.90;61.80
5520;DHT22;2782;52.362;10.012;2023-12-28T06:29:09;19.90;61.80
5520;DHT22;2782;52.362;10.012;2023-12-28T06:30:10;19.80;61.60
5520;DHT22;2782;52.362;10.012;2023-12-28T06:31:13;19.80;61.70
5520;DHT22;2782;52.362;10.012;2023-12-28T06:32:14;19.80;61.70
5520;DHT22;2782;52.362;10.012;2023-12-28T06:33:15;19.80;61.70
5520;DHT22;2782;52.362;10.012;2023-12-28T06:34:16;19.80;61.70
5520;DHT22;2782;52.362;10.012;2023-12-28T06:35:18;19.80;61.70
5520;DHT22;2782;52.362;10.012;2023-12-28T06:36:18;19.80;61.70
5520;DHT22;2782;52.362;10.012;2023-12-28T06:37:20;19.80;61.70
5520;DHT22;2782;52.362;10.012;2023-12-28T06:38:20;19.80;61.70
5520;DHT22;2782;52.362;10.012;2023-12-28T06:39:22;19.80;61.70